sensor_id;sensor_type;location;lat;lon;timestamp;pressure;altitude;pressure_sealevel;temperature;humidity
47430;BME280;33181;49.246;7.372;2023-01-27T00:01:50;99150.38;;;0.52;91.10
47430;BME280;33181;49.246;7.372;2023-01-27T00:04:16;99157.22;;;0.53;90.99
47430;BME280;33181;49.246;7.372;2023-01-27T00:06:42;99165.78;;;0.55;91.24
47430;BME280;33181;49.246;7.372;2023-01-27T00:09:08;99156.38;;;0.52;90.90
47430;BME280;33181;49.246;7.372;2023-01-27T00:11:34;99153.00;;;0.50;91.02
47430;BME280;33181;49.246;7.372;2023-01-27T00:14:18;99155.66;;;0.49;91.27
47430;BME280;33181;49.246;7.372;2023-01-27T00:16:44;99153.19;;;0.44;91.53
47430;BME280;33181;49.246;7.372;2023-01-27T00:19:10;99149.94;;;0.39;91.34
47430;BME280;33181;49.246;7.372;2023-01-27T00:21:35;99144.13;;;0.32;92.62
47430;BME280;33181;49.246;7.372;2023-01-27T00:24:20;99144.06;;;0.34;92.33
47430;BME280;33181;49.246;7.372;2023-01-27T00:27:05;99139.72;;;0.36;92.48
47430;BME280;33181;49.246;7.372;2023-01-27T00:29:37;99141.38;;;0.37;92.69
47430;BME280;33181;49.246;7.372;2023-01-27T00:32:04;99137.78;;;0.41;92.87
47430;BME280;33181;49.246;7.372;2023-01-27T00:34:49;99129.09;;;0.43;92.24
47430;BME280;33181;49.246;7.372;2023-01-27T00:37:15;99130.50;;;0.54;92.04
47430;BME280;33181;49.246;7.372;2023-01-27T00:39:41;99135.78;;;0.51;92.31
47430;BME280;33181;49.246;7.372;2023-01-27T00:42:07;99137.47;;;0.52;92.58
47430;BME280;33181;49.246;7.372;2023-01-27T00:44:33;99138.13;;;0.57;92.33
47430;BME280;33181;49.246;7.372;2023-01-27T00:46:58;99129.31;;;0.62;92.25
47430;BME280;33181;49.246;7.372;2023-01-27T00:49:24;99138.63;;;0.68;92.22
47430;BME280;33181;49.246;7.372;2023-01-27T00:51:50;99129.28;;;0.64;92.06
47430;BME280;33181;49.246;7.372;2023-01-27T00:54:16;99138.72;;;0.65;92.33
47430;BME280;33181;49.246;7.372;2023-01-27T00:56:42;99134.34;;;0.67;92.08
47430;BME280;33181;49.246;7.372;2023-01-27T00:59:09;99135.00;;;0.74;92.35
47430;BME280;33181;49.246;7.372;2023-01-27T01:01:35;99134.16;;;0.73;92.18
47430;BME280;33181;49.246;7.372;2023-01-27T01:04:02;99130.66;;;0.74;92.33
47430;BME280;33181;49.246;7.372;2023-01-27T01:06:28;99134.16;;;0.73;92.34
47430;BME280;33181;49.246;7.372;2023-01-27T01:08:56;99134.81;;;0.78;92.11
47430;BME280;33181;49.246;7.372;2023-01-27T01:11:23;99138.13;;;0.82;91.75
47430;BME280;33181;49.246;7.372;2023-01-27T01:13:49;99138.50;;;0.71;92.30
47430;BME280;33181;49.246;7.372;2023-01-27T01:16:19;99138.81;;;0.62;93.02
47430;BME280;33181;49.246;7.372;2023-01-27T01:18:45;99131.69;;;0.68;92.61
47430;BME280;33181;49.246;7.372;2023-01-27T01:21:12;99136.78;;;0.72;92.44
47430;BME280;33181;49.246;7.372;2023-01-27T01:23:42;99142.13;;;0.67;92.83
47430;BME280;33181;49.246;7.372;2023-01-27T01:26:11;99143.00;;;0.66;92.96
47430;BME280;33181;49.246;7.372;2023-01-27T01:28:38;99135.31;;;0.64;92.94
47430;BME280;33181;49.246;7.372;2023-01-27T01:31:10;99144.84;;;0.62;93.09
47430;BME280;33181;49.246;7.372;2023-01-27T01:33:37;99136.88;;;0.68;92.99
47430;BME280;33181;49.246;7.372;2023-01-27T01:36:15;99135.19;;;0.67;93.20
47430;BME280;33181;49.246;7.372;2023-01-27T01:38:42;99137.47;;;0.77;93.40
47430;BME280;33181;49.246;7.372;2023-01-27T01:41:13;99136.63;;;0.76;93.06
47430;BME280;33181;49.246;7.372;2023-01-27T01:43:40;99138.19;;;0.80;93.10
47430;BME280;33181;49.246;7.372;2023-01-27T01:46:09;99135.72;;;0.77;93.52
47430;BME280;33181;49.246;7.372;2023-01-27T01:48:54;99133.25;;;0.74;93.10
47430;BME280;33181;49.246;7.372;2023-01-27T01:51:28;99135.63;;;0.80;93.21
47430;BME280;33181;49.246;7.372;2023-01-27T01:54:08;99136.31;;;0.85;93.14
47430;BME280;33181;49.246;7.372;2023-01-27T01:57:14;99132.81;;;0.86;93.16
47430;BME280;33181;49.246;7.372;2023-01-27T02:00:02;99124.84;;;0.92;93.22
47430;BME280;33181;49.246;7.372;2023-01-27T02:02:29;99126.31;;;1.00;93.05
47430;BME280;33181;49.246;7.372;2023-01-27T02:05:05;99123.72;;;1.00;92.89
47430;BME280;33181;49.246;7.372;2023-01-27T02:08:21;99115.06;;;1.01;92.53
47430;BME280;33181;49.246;7.372;2023-01-27T02:10:49;99111.81;;;0.96;92.66
47430;BME280;33181;49.246;7.372;2023-01-27T02:13:16;99118.63;;;0.98;93.11
47430;BME280;33181;49.246;7.372;2023-01-27T02:15:42;99115.84;;;1.03;92.92
47430;BME280;33181;49.246;7.372;2023-01-27T02:18:08;99117.44;;;1.07;92.80
47430;BME280;33181;49.246;7.372;2023-01-27T02:20:47;99115.72;;;1.07;92.70
47430;BME280;33181;49.246;7.372;2023-01-27T02:29:01;99107.16;;;1.05;92.51
47430;BME280;33181;49.246;7.372;2023-01-27T02:31:30;99110.44;;;1.10;92.80
47430;BME280;33181;49.246;7.372;2023-01-27T02:34:08;99109.28;;;1.18;92.81
47430;BME280;33181;49.246;7.372;2023-01-27T02:36:50;99105.00;;;1.16;92.63
47430;BME280;33181;49.246;7.372;2023-01-27T02:39:21;99105.88;;;1.17;92.65
47430;BME280;33181;49.246;7.372;2023-01-27T02:41:52;99107.53;;;1.18;92.87
47430;BME280;33181;49.246;7.372;2023-01-27T02:44:19;99111.91;;;1.16;92.28
47430;BME280;33181;49.246;7.372;2023-01-27T02:46:45;99110.06;;;1.20;92.45
47430;BME280;33181;49.246;7.372;2023-01-27T02:49:11;99109.91;;;1.24;92.63
47430;BME280;33181;49.246;7.372;2023-01-27T02:51:37;99109.00;;;1.25;92.68
47430;BME280;33181;49.246;7.372;2023-01-27T02:54:04;99105.66;;;1.23;92.86
47430;BME280;33181;49.246;7.372;2023-01-27T02:56:30;99107.25;;;1.26;92.50
47430;BME280;33181;49.246;7.372;2023-01-27T02:58:58;99115.00;;;1.26;92.45
47430;BME280;33181;49.246;7.372;2023-01-27T03:01:24;99110.75;;;1.25;92.43
47430;BME280;33181;49.246;7.372;2023-01-27T03:03:50;99110.75;;;1.25;92.48
47430;BME280;33181;49.246;7.372;2023-01-27T03:06:16;99114.78;;;1.32;92.25
47430;BME280;33181;49.246;7.372;2023-01-27T03:08:43;99111.25;;;1.34;92.28
47430;BME280;33181;49.246;7.372;2023-01-27T03:11:09;99108.66;;;1.34;92.19
47430;BME280;33181;49.246;7.372;2023-01-27T03:13:36;99113.91;;;1.33;92.30
47430;BME280;33181;49.246;7.372;2023-01-27T03:16:02;99118.09;;;1.35;91.95
47430;BME280;33181;49.246;7.372;2023-01-27T03:18:48;99114.63;;;1.36;91.83
47430;BME280;33181;49.246;7.372;2023-01-27T03:21:16;99120.66;;;1.37;92.13
47430;BME280;33181;49.246;7.372;2023-01-27T03:23:42;99124.03;;;1.39;91.91
47430;BME280;33181;49.246;7.372;2023-01-27T03:26:10;99110.41;;;1.34;92.10
47430;BME280;33181;49.246;7.372;2023-01-27T03:28:37;99121.06;;;1.26;92.01
47430;BME280;33181;49.246;7.372;2023-01-27T03:31:06;99121.09;;;1.25;92.30
47430;BME280;33181;49.246;7.372;2023-01-27T03:33:33;99124.38;;;1.30;91.77
47430;BME280;33181;49.246;7.372;2023-01-27T03:36:06;99114.03;;;1.30;92.35
47430;BME280;33181;49.246;7.372;2023-01-27T03:38:51;99113.19;;;1.29;92.10
47430;BME280;33181;49.246;7.372;2023-01-27T03:41:35;99116.66;;;1.28;92.50
47430;BME280;33181;49.246;7.372;2023-01-27T03:44:19;99118.50;;;1.25;92.90
47430;BME280;33181;49.246;7.372;2023-01-27T03:47:03;99114.25;;;1.24;92.84
47430;BME280;33181;49.246;7.372;2023-01-27T03:49:29;99114.03;;;1.30;92.50
47430;BME280;33181;49.246;7.372;2023-01-27T03:51:55;99115.59;;;1.34;92.54
47430;BME280;33181;49.246;7.372;2023-01-27T03:54:20;99117.22;;;1.36;92.65
47430;BME280;33181;49.246;7.372;2023-01-27T03:56:46;99122.28;;;1.39;92.23
47430;BME280;33181;49.246;7.372;2023-01-27T03:59:13;99114.53;;;1.39;92.49
47430;BME280;33181;49.246;7.372;2023-01-27T04:01:39;99114.56;;;1.38;92.31
47430;BME280;33181;49.246;7.372;2023-01-27T04:04:05;99119.91;;;1.33;92.71
47430;BME280;33181;49.246;7.372;2023-01-27T04:06:49;99118.59;;;1.23;93.37
47430;BME280;33181;49.246;7.372;2023-01-27T04:09:31;99122.66;;;1.29;92.93
47430;BME280;33181;49.246;7.372;2023-01-27T04:12:00;99120.16;;;1.27;92.26
47430;BME280;33181;49.246;7.372;2023-01-27T04:14:39;99124.59;;;1.24;93.11
47430;BME280;33181;49.246;7.372;2023-01-27T04:17:16;99116.59;;;1.30;92.56
47430;BME280;33181;49.246;7.372;2023-01-27T04:19:43;99120.06;;;1.29;93.03
47430;BME280;33181;49.246;7.372;2023-01-27T04:22:11;99112.28;;;1.30;93.00
47430;BME280;33181;49.246;7.372;2023-01-27T04:24:37;99115.59;;;1.34;92.96
47430;BME280;33181;49.246;7.372;2023-01-27T04:27:09;99120.19;;;1.26;92.79
47430;BME280;33181;49.246;7.372;2023-01-27T04:29:38;99109.09;;;1.22;92.87
47430;BME280;33181;49.246;7.372;2023-01-27T04:32:07;99114.41;;;1.19;93.38
47430;BME280;33181;49.246;7.372;2023-01-27T04:34:35;99110.25;;;1.15;93.10
47430;BME280;33181;49.246;7.372;2023-01-27T04:37:01;99110.16;;;1.16;93.38
47430;BME280;33181;49.246;7.372;2023-01-27T04:39:31;99113.53;;;1.20;93.64
47430;BME280;33181;49.246;7.372;2023-01-27T04:41:57;99117.94;;;1.16;94.09
47430;BME280;33181;49.246;7.372;2023-01-27T04:44:23;99121.38;;;1.17;94.61
47430;BME280;33181;49.246;7.372;2023-01-27T04:46:50;99118.91;;;1.14;95.31
47430;BME280;33181;49.246;7.372;2023-01-27T04:49:16;99121.81;;;1.05;96.20
47430;BME280;33181;49.246;7.372;2023-01-27T04:51:42;99128.16;;;0.96;96.85
47430;BME280;33181;49.246;7.372;2023-01-27T04:54:08;99124.34;;;1.06;97.22
47430;BME280;33181;49.246;7.372;2023-01-27T04:56:39;99127.72;;;1.08;96.94
47430;BME280;33181;49.246;7.372;2023-01-27T04:59:11;99130.06;;;0.91;97.65
47430;BME280;33181;49.246;7.372;2023-01-27T05:01:37;99137.66;;;0.96;97.92
47430;BME280;33181;49.246;7.372;2023-01-27T05:04:03;99125.09;;;0.85;98.33
47430;BME280;33181;49.246;7.372;2023-01-27T05:06:30;99132.81;;;0.86;98.91
47430;BME280;33181;49.246;7.372;2023-01-27T05:08:56;99133.38;;;0.95;98.96
47430;BME280;33181;49.246;7.372;2023-01-27T05:11:21;99141.41;;;0.87;98.51
47430;BME280;33181;49.246;7.372;2023-01-27T05:13:47;99134.38;;;0.90;99.08
47430;BME280;33181;49.246;7.372;2023-01-27T05:16:22;99141.28;;;0.91;98.69
47430;BME280;33181;49.246;7.372;2023-01-27T05:18:50;99139.09;;;1.04;98.69
47430;BME280;33181;49.246;7.372;2023-01-27T05:21:23;99141.69;;;1.04;97.99
47430;BME280;33181;49.246;7.372;2023-01-27T05:23:49;99145.88;;;1.07;96.83
47430;BME280;33181;49.246;7.372;2023-01-27T05:26:22;99150.50;;;0.99;97.12
47430;BME280;33181;49.246;7.372;2023-01-27T05:28:49;99152.06;;;1.03;97.80
47430;BME280;33181;49.246;7.372;2023-01-27T05:31:21;99152.38;;;0.93;98.08
47430;BME280;33181;49.246;7.372;2023-01-27T05:33:50;99155.03;;;0.92;98.73
47430;BME280;33181;49.246;7.372;2023-01-27T05:36:18;99158.72;;;0.85;98.36
47430;BME280;33181;49.246;7.372;2023-01-27T05:38:45;99156.19;;;0.83;98.74
47430;BME280;33181;49.246;7.372;2023-01-27T05:41:16;99161.81;;;0.95;99.50
47430;BME280;33181;49.246;7.372;2023-01-27T05:43:44;99165.38;;;0.92;99.40
47430;BME280;33181;49.246;7.372;2023-01-27T05:46:20;99168.53;;;1.00;99.64
47430;BME280;33181;49.246;7.372;2023-01-27T05:48:48;99174.28;;;0.83;98.43
47430;BME280;33181;49.246;7.372;2023-01-27T05:51:17;99174.13;;;0.88;98.68
47430;BME280;33181;49.246;7.372;2023-01-27T05:53:44;99174.28;;;0.83;99.03
47430;BME280;33181;49.246;7.372;2023-01-27T05:56:14;99172.66;;;0.81;99.21
47430;BME280;33181;49.246;7.372;2023-01-27T05:58:43;99174.59;;;0.74;98.97
47430;BME280;33181;49.246;7.372;2023-01-27T06:01:18;99175.41;;;0.76;99.62
47430;BME280;33181;49.246;7.372;2023-01-27T06:03:46;99184.88;;;0.76;99.75
47430;BME280;33181;49.246;7.372;2023-01-27T06:06:13;99179.94;;;0.69;99.00
47430;BME280;33181;49.246;7.372;2023-01-27T06:08:40;99179.59;;;0.79;99.90
47430;BME280;33181;49.246;7.372;2023-01-27T06:11:07;99185.84;;;0.73;99.48
47430;BME280;33181;49.246;7.372;2023-01-27T06:13:33;99184.25;;;0.69;99.66
47430;BME280;33181;49.246;7.372;2023-01-27T06:16:06;99183.91;;;0.80;99.45
47430;BME280;33181;49.246;7.372;2023-01-27T06:18:32;99184.94;;;0.74;98.48
47430;BME280;33181;49.246;7.372;2023-01-27T06:20:59;99187.22;;;0.83;98.89
47430;BME280;33181;49.246;7.372;2023-01-27T06:23:26;99181.66;;;0.94;99.11
47430;BME280;33181;49.246;7.372;2023-01-27T06:25:53;99180.94;;;0.90;98.38
47430;BME280;33181;49.246;7.372;2023-01-27T06:28:19;99180.00;;;0.93;98.41
47430;BME280;33181;49.246;7.372;2023-01-27T06:30:45;99179.78;;;0.99;98.89
47430;BME280;33181;49.246;7.372;2023-01-27T06:33:13;99184.56;;;1.10;98.91
47430;BME280;33181;49.246;7.372;2023-01-27T06:35:39;99183.91;;;1.05;97.50
47430;BME280;33181;49.246;7.372;2023-01-27T06:38:11;99192.31;;;0.85;96.38
47430;BME280;33181;49.246;7.372;2023-01-27T06:40:37;99187.91;;;0.88;96.59
47430;BME280;33181;49.246;7.372;2023-01-27T06:43:03;99193.75;;;0.93;96.41
47430;BME280;33181;49.246;7.372;2023-01-27T06:45:29;99196.31;;;0.95;95.69
47430;BME280;33181;49.246;7.372;2023-01-27T06:47:58;99190.63;;;0.85;95.42
47430;BME280;33181;49.246;7.372;2023-01-27T06:50:27;99197.78;;;0.77;95.14
47430;BME280;33181;49.246;7.372;2023-01-27T06:53:00;99193.66;;;0.72;95.25
47430;BME280;33181;49.246;7.372;2023-01-27T06:55:27;99207.03;;;0.58;96.05
47430;BME280;33181;49.246;7.372;2023-01-27T06:57:53;99197.28;;;0.66;95.69
47430;BME280;33181;49.246;7.372;2023-01-27T07:00:19;99211.19;;;0.62;95.49
47430;BME280;33181;49.246;7.372;2023-01-27T07:02:45;99214.38;;;0.70;95.33
47430;BME280;33181;49.246;7.372;2023-01-27T07:05:12;99210.16;;;0.67;96.20
47430;BME280;33181;49.246;7.372;2023-01-27T07:07:38;99214.97;;;0.78;95.90
47430;BME280;33181;49.246;7.372;2023-01-27T07:10:06;99217.75;;;0.72;95.84
47430;BME280;33181;49.246;7.372;2023-01-27T07:12:32;99223.78;;;0.73;95.43
47430;BME280;33181;49.246;7.372;2023-01-27T07:15:04;99228.16;;;0.71;95.88
47430;BME280;33181;49.246;7.372;2023-01-27T07:17:31;99228.19;;;0.69;95.36
47430;BME280;33181;49.246;7.372;2023-01-27T07:19:57;99238.72;;;0.63;95.70
47430;BME280;33181;49.246;7.372;2023-01-27T07:22:25;99236.41;;;0.55;96.85
47430;BME280;33181;49.246;7.372;2023-01-27T07:24:51;99243.84;;;0.64;96.40
47430;BME280;33181;49.246;7.372;2023-01-27T07:27:17;99245.53;;;0.65;96.76
47430;BME280;33181;49.246;7.372;2023-01-27T07:29:44;99241.72;;;0.77;96.49
47430;BME280;33181;49.246;7.372;2023-01-27T07:32:10;99237.25;;;0.82;95.76
47430;BME280;33181;49.246;7.372;2023-01-27T07:34:38;99236.25;;;0.86;95.53
47430;BME280;33181;49.246;7.372;2023-01-27T07:37:04;99242.44;;;0.82;95.64
47430;BME280;33181;49.246;7.372;2023-01-27T07:39:31;99238.94;;;0.83;95.64
47430;BME280;33181;49.246;7.372;2023-01-27T07:41:58;99244.81;;;0.88;95.73
47430;BME280;33181;49.246;7.372;2023-01-27T07:44:26;99243.53;;;1.00;95.60
47430;BME280;33181;49.246;7.372;2023-01-27T07:46:53;99237.81;;;0.90;94.51
47430;BME280;33181;49.246;7.372;2023-01-27T07:49:19;99239.53;;;0.91;95.23
47430;BME280;33181;49.246;7.372;2023-01-27T07:51:45;99249.63;;;0.99;95.14
47430;BME280;33181;49.246;7.372;2023-01-27T07:54:11;99253.75;;;1.05;94.65
47430;BME280;33181;49.246;7.372;2023-01-27T07:56:37;99258.72;;;1.11;94.67
47430;BME280;33181;49.246;7.372;2023-01-27T07:59:03;99262.16;;;1.10;94.25
47430;BME280;33181;49.246;7.372;2023-01-27T08:01:29;99263.78;;;1.14;93.41
47430;BME280;33181;49.246;7.372;2023-01-27T08:03:55;99263.06;;;1.09;93.17
47430;BME280;33181;49.246;7.372;2023-01-27T08:06:21;99257.00;;;1.10;93.81
47430;BME280;33181;49.246;7.372;2023-01-27T08:08:47;99262.03;;;1.14;93.98
47430;BME280;33181;49.246;7.372;2023-01-27T08:11:16;99264.50;;;1.18;93.11
47430;BME280;33181;49.246;7.372;2023-01-27T08:13:42;99259.22;;;1.21;93.13
47430;BME280;33181;49.246;7.372;2023-01-27T08:16:13;99265.38;;;1.16;92.35
47430;BME280;33181;49.246;7.372;2023-01-27T08:18:39;99267.53;;;1.04;93.30
47430;BME280;33181;49.246;7.372;2023-01-27T08:21:09;99261.41;;;1.08;93.66
47430;BME280;33181;49.246;7.372;2023-01-27T08:23:36;99266.47;;;1.11;92.73
47430;BME280;33181;49.246;7.372;2023-01-27T08:26:04;99259.59;;;1.10;92.08
47430;BME280;33181;49.246;7.372;2023-01-27T08:28:32;99258.56;;;0.89;92.65
47430;BME280;33181;49.246;7.372;2023-01-27T08:31:08;99260.88;;;0.98;93.32
47430;BME280;33181;49.246;7.372;2023-01-27T08:33:34;99268.63;;;0.98;92.16
47430;BME280;33181;49.246;7.372;2023-01-27T08:36:13;99273.59;;;1.04;92.85
47430;BME280;33181;49.246;7.372;2023-01-27T08:38:41;99265.97;;;1.00;92.96
47430;BME280;33181;49.246;7.372;2023-01-27T08:41:10;99273.25;;;1.13;93.23
47430;BME280;33181;49.246;7.372;2023-01-27T08:43:36;99266.09;;;1.22;92.58
47430;BME280;33181;49.246;7.372;2023-01-27T08:46:03;99280.28;;;1.35;92.74
47430;BME280;33181;49.246;7.372;2023-01-27T08:48:30;99277.44;;;1.18;91.33
47430;BME280;33181;49.246;7.372;2023-01-27T08:50:58;99285.31;;;1.14;92.05
47430;BME280;33181;49.246;7.372;2023-01-27T08:53:25;99283.34;;;1.21;92.03
47430;BME280;33181;49.246;7.372;2023-01-27T08:55:54;99285.78;;;1.26;91.92
47430;BME280;33181;49.246;7.372;2023-01-27T08:58:21;99288.56;;;1.20;91.37
47430;BME280;33181;49.246;7.372;2023-01-27T09:00:47;99290.38;;;1.18;92.21
47430;BME280;33181;49.246;7.372;2023-01-27T09:03:13;99298.38;;;1.10;92.92
47430;BME280;33181;49.246;7.372;2023-01-27T09:05:39;99294.72;;;1.17;92.51
47430;BME280;33181;49.246;7.372;2023-01-27T09:08:06;99295.47;;;1.21;92.87
47430;BME280;33181;49.246;7.372;2023-01-27T09:10:37;99300.66;;;1.19;92.05
47430;BME280;33181;49.246;7.372;2023-01-27T09:13:04;99305.84;;;1.19;92.74
47430;BME280;33181;49.246;7.372;2023-01-27T09:15:30;99301.69;;;1.15;92.11
47430;BME280;33181;49.246;7.372;2023-01-27T09:17:59;99310.59;;;1.31;91.90
47430;BME280;33181;49.246;7.372;2023-01-27T09:20:24;99306.38;;;1.29;91.67
47430;BME280;33181;49.246;7.372;2023-01-27T09:22:50;99307.81;;;1.37;91.36
47430;BME280;33181;49.246;7.372;2023-01-27T09:25:19;99313.47;;;1.24;91.43
47430;BME280;33181;49.246;7.372;2023-01-27T09:27:44;99308.53;;;1.16;90.94
47430;BME280;33181;49.246;7.372;2023-01-27T09:30:13;99315.50;;;1.14;91.54
47430;BME280;33181;49.246;7.372;2023-01-27T09:32:40;99316.00;;;0.99;91.22
47430;BME280;33181;49.246;7.372;2023-01-27T09:35:08;99330.72;;;0.97;91.70
47430;BME280;33181;49.246;7.372;2023-01-27T09:37:49;99327.75;;;1.09;91.93
47430;BME280;33181;49.246;7.372;2023-01-27T09:40:30;99323.06;;;1.20;91.98
47430;BME280;33181;49.246;7.372;2023-01-27T09:58:26;99348.03;;;1.21;90.45
47430;BME280;33181;49.246;7.372;2023-01-27T10:19:19;99337.50;;;1.52;86.80
47430;BME280;33181;49.246;7.372;2023-01-27T10:22:12;99333.34;;;1.48;86.87
47430;BME280;33181;49.246;7.372;2023-01-27T10:27:46;99337.44;;;1.54;84.93
47430;BME280;33181;49.246;7.372;2023-01-27T10:30:20;99339.56;;;1.43;86.56
47430;BME280;33181;49.246;7.372;2023-01-27T10:33:17;99335.44;;;1.62;87.19
47430;BME280;33181;49.246;7.372;2023-01-27T10:36:07;99330.81;;;1.70;86.82
47430;BME280;33181;49.246;7.372;2023-01-27T10:50:45;99311.75;;;1.48;86.37
47430;BME280;33181;49.246;7.372;2023-01-27T10:53:43;99309.50;;;1.63;87.88
47430;BME280;33181;49.246;7.372;2023-01-27T10:56:38;99314.09;;;1.80;86.15
47430;BME280;33181;49.246;7.372;2023-01-27T10:59:44;99304.91;;;1.95;85.06
47430;BME280;33181;49.246;7.372;2023-01-27T11:02:30;99307.59;;;1.92;84.97
47430;BME280;33181;49.246;7.372;2023-01-27T11:05:04;99306.84;;;1.90;84.95
47430;BME280;33181;49.246;7.372;2023-01-27T11:07:46;99300.97;;;2.08;85.15
47430;BME280;33181;49.246;7.372;2023-01-27T11:10:19;99307.25;;;2.01;85.12
47430;BME280;33181;49.246;7.372;2023-01-27T11:12:52;99303.59;;;2.07;84.62
47430;BME280;33181;49.246;7.372;2023-01-27T11:15:28;99295.28;;;2.22;84.16
47430;BME280;33181;49.246;7.372;2023-01-27T11:18:11;99305.19;;;2.11;84.34
47430;BME280;33181;49.246;7.372;2023-01-27T11:20:42;99295.22;;;2.00;85.17
47430;BME280;33181;49.246;7.372;2023-01-27T11:23:17;99315.16;;;1.98;84.70
47430;BME280;33181;49.246;7.372;2023-01-27T11:26:23;99297.25;;;1.69;86.58
47430;BME280;33181;49.246;7.372;2023-01-27T11:29:41;99296.63;;;1.85;86.92
47430;BME280;33181;49.246;7.372;2023-01-27T11:32:39;99293.53;;;1.99;86.08
47430;BME280;33181;49.246;7.372;2023-01-27T11:35:13;99304.28;;;2.12;85.48
47430;BME280;33181;49.246;7.372;2023-01-27T11:37:52;99295.19;;;2.02;84.89
47430;BME280;33181;49.246;7.372;2023-01-27T11:40:30;99301.75;;;1.87;85.55
47430;BME280;33181;49.246;7.372;2023-01-27T11:43:00;99288.75;;;1.89;86.25
47430;BME280;33181;49.246;7.372;2023-01-27T11:45:33;99284.81;;;2.02;86.57
47430;BME280;33181;49.246;7.372;2023-01-27T11:48:04;99284.94;;;1.99;85.51
47430;BME280;33181;49.246;7.372;2023-01-27T11:50:35;99287.69;;;1.94;86.20
47430;BME280;33181;49.246;7.372;2023-01-27T11:55:48;99286.22;;;1.87;87.34
47430;BME280;33181;49.246;7.372;2023-01-27T12:00:58;99289.09;;;2.03;86.85
47430;BME280;33181;49.246;7.372;2023-01-27T12:04:00;99283.59;;;2.11;86.51
47430;BME280;33181;49.246;7.372;2023-01-27T12:09:38;99287.69;;;1.94;86.73
47430;BME280;33181;49.246;7.372;2023-01-27T12:14:57;99296.69;;;2.07;86.58
47430;BME280;33181;49.246;7.372;2023-01-27T12:17:49;99288.19;;;2.04;87.17
47430;BME280;33181;49.246;7.372;2023-01-27T12:22:44;99292.72;;;1.99;87.30
47430;BME280;33181;49.246;7.372;2023-01-27T12:25:26;99278.53;;;2.07;87.31
47430;BME280;33181;49.246;7.372;2023-01-27T12:28:01;99276.78;;;2.31;87.05
47430;BME280;33181;49.246;7.372;2023-01-27T12:30:33;99279.34;;;2.09;85.50
47430;BME280;33181;49.246;7.372;2023-01-27T12:33:12;99273.81;;;2.19;85.39
47430;BME280;33181;49.246;7.372;2023-01-27T12:35:47;99269.22;;;2.03;84.41
47430;BME280;33181;49.246;7.372;2023-01-27T12:38:17;99260.09;;;1.93;85.21
47430;BME280;33181;49.246;7.372;2023-01-27T12:40:45;99268.81;;;1.91;85.08
47430;BME280;33181;49.246;7.372;2023-01-27T12:43:18;99276.88;;;1.83;85.39
47430;BME280;33181;49.246;7.372;2023-01-27T12:48:48;99268.25;;;2.06;84.93
47430;BME280;33181;49.246;7.372;2023-01-27T12:51:20;99269.28;;;2.02;84.70
47430;BME280;33181;49.246;7.372;2023-01-27T12:53:50;99266.44;;;2.08;85.21
47430;BME280;33181;49.246;7.372;2023-01-27T12:56:36;99286.88;;;2.16;84.20
47430;BME280;33181;49.246;7.372;2023-01-27T12:59:03;99263.56;;;2.16;83.69
47430;BME280;33181;49.246;7.372;2023-01-27T13:01:34;99263.50;;;2.17;83.79
47430;BME280;33181;49.246;7.372;2023-01-27T13:04:20;99264.72;;;2.30;83.80
47430;BME280;33181;49.246;7.372;2023-01-27T13:09:37;99269.16;;;2.27;83.90
47430;BME280;33181;49.246;7.372;2023-01-27T13:12:33;99268.13;;;2.09;82.81
47430;BME280;33181;49.246;7.372;2023-01-27T13:15:14;99275.06;;;2.08;84.17
47430;BME280;33181;49.246;7.372;2023-01-27T13:20:36;99273.63;;;2.23;83.37
47430;BME280;33181;49.246;7.372;2023-01-27T13:23:26;99283.84;;;2.28;82.90
47430;BME280;33181;49.246;7.372;2023-01-27T13:29:17;99285.81;;;2.21;83.24
47430;BME280;33181;49.246;7.372;2023-01-27T13:32:04;99282.19;;;2.25;83.90
47430;BME280;33181;49.246;7.372;2023-01-27T13:40:41;99285.28;;;2.35;83.63
47430;BME280;33181;49.246;7.372;2023-01-27T13:43:17;99292.09;;;2.38;82.59
47430;BME280;33181;49.246;7.372;2023-01-27T13:45:56;99289.50;;;2.38;82.71
47430;BME280;33181;49.246;7.372;2023-01-27T13:48:33;99286.16;;;2.12;83.39
47430;BME280;33181;49.246;7.372;2023-01-27T13:51:10;99270.38;;;2.18;83.55
47430;BME280;33181;49.246;7.372;2023-01-27T13:53:37;99278.53;;;2.31;83.22
47430;BME280;33181;49.246;7.372;2023-01-27T14:07:59;99283.16;;;2.23;84.05
47430;BME280;33181;49.246;7.372;2023-01-27T14:10:39;99280.94;;;2.36;83.62
47430;BME280;33181;49.246;7.372;2023-01-27T14:19:42;99292.56;;;2.25;82.81
47430;BME280;33181;49.246;7.372;2023-01-27T14:25:24;99299.50;;;2.25;82.59
47430;BME280;33181;49.246;7.372;2023-01-27T14:28:19;99297.16;;;2.41;82.27
47430;BME280;33181;49.246;7.372;2023-01-27T14:31:05;99299.88;;;2.38;81.34
47430;BME280;33181;49.246;7.372;2023-01-27T14:33:50;99307.16;;;2.28;81.92
47430;BME280;33181;49.246;7.372;2023-01-27T14:40:02;99305.88;;;2.16;82.85
47430;BME280;33181;49.246;7.372;2023-01-27T14:45:39;99311.50;;;2.27;81.86
47430;BME280;33181;49.246;7.372;2023-01-27T14:51:41;99311.28;;;2.34;81.89
47430;BME280;33181;49.246;7.372;2023-01-27T14:57:00;99319.31;;;2.26;80.47
47430;BME280;33181;49.246;7.372;2023-01-27T15:05:07;99313.06;;;2.31;81.23
47430;BME280;33181;49.246;7.372;2023-01-27T15:10:31;99318.25;;;2.31;80.93
47430;BME280;33181;49.246;7.372;2023-01-27T15:13:23;99323.69;;;2.47;81.73
47430;BME280;33181;49.246;7.372;2023-01-27T15:16:31;99328.03;;;2.23;81.54
47430;BME280;33181;49.246;7.372;2023-01-27T15:25:23;99341.72;;;2.27;82.27
47430;BME280;33181;49.246;7.372;2023-01-27T15:27:56;99338.06;;;2.32;82.44
47430;BME280;33181;49.246;7.372;2023-01-27T15:30:34;99349.25;;;2.35;82.28
47430;BME280;33181;49.246;7.372;2023-01-27T15:33:02;99348.66;;;2.26;82.33
47430;BME280;33181;49.246;7.372;2023-01-27T15:35:48;99351.84;;;2.35;82.31
47430;BME280;33181;49.246;7.372;2023-01-27T15:38:16;99349.69;;;2.22;82.34
47430;BME280;33181;49.246;7.372;2023-01-27T15:41:10;99354.66;;;2.28;82.95
47430;BME280;33181;49.246;7.372;2023-01-27T15:43:39;99363.72;;;2.17;83.45
47430;BME280;33181;49.246;7.372;2023-01-27T15:46:45;99357.53;;;2.21;81.92
47430;BME280;33181;49.246;7.372;2023-01-27T15:49:26;99365.41;;;2.18;81.93
47430;BME280;33181;49.246;7.372;2023-01-27T15:51:56;99358.31;;;2.23;81.87